createdAt,value
2023-03-04T00:00:10.140Z,28.20
2023-03-04T00:01:03.294Z,29.30
2023-03-04T00:01:36.587Z,29.10
2023-03-04T00:02:09.819Z,27.00
2023-03-04T00:02:43.298Z,31.10
2023-03-04T00:03:16.696Z,28.50
2023-03-04T00:03:50.076Z,31.10
2023-03-04T00:04:23.366Z,31.50
2023-03-04T00:04:56.676Z,29.20
2023-03-04T00:05:31.364Z,30.40
2023-03-04T00:06:05.362Z,29.80
2023-03-04T00:06:39.386Z,29.60
2023-03-04T00:07:17.020Z,27.60
2023-03-04T00:07:50.595Z,28.40
2023-03-04T00:08:24.109Z,30.90
2023-03-04T00:08:57.874Z,27.70
2023-03-04T00:09:31.228Z,32.10
2023-03-04T00:10:06.130Z,26.90
2023-03-04T00:10:39.421Z,28.90
2023-03-04T00:11:12.643Z,26.90
2023-03-04T00:11:45.947Z,30.10
2023-03-04T00:12:20.417Z,30.20
2023-03-04T00:12:53.719Z,28.40
2023-03-04T00:13:27.105Z,34.50
2023-03-04T00:14:00.884Z,30.90
2023-03-04T00:14:34.364Z,30.40
2023-03-04T00:15:08.761Z,29.30
2023-03-04T00:15:42.075Z,32.30
2023-03-04T00:16:15.629Z,28.60
2023-03-04T00:16:49.391Z,28.50
2023-03-04T00:17:23.116Z,28.60
2023-03-04T00:17:56.594Z,29.50
2023-03-04T00:18:29.932Z,30.80
2023-03-04T00:19:06.285Z,30.50
2023-03-04T00:19:39.704Z,27.80
2023-03-04T00:20:13.819Z,27.80
2023-03-04T00:20:47.792Z,31.80
2023-03-04T00:21:21.922Z,29.40
2023-03-04T00:21:55.237Z,29.30
2023-03-04T00:22:28.595Z,33.10
2023-03-04T00:23:04.404Z,31.20
2023-03-04T00:23:37.831Z,30.00
2023-03-04T00:24:11.127Z,28.30
2023-03-04T00:24:44.566Z,29.40
2023-03-04T00:25:17.961Z,30.00
2023-03-04T00:25:51.263Z,33.30
2023-03-04T00:26:24.593Z,31.10
2023-03-04T00:26:58.052Z,34.10
2023-03-04T00:27:31.403Z,29.80
2023-03-04T00:28:04.963Z,32.80
2023-03-04T00:28:39.487Z,30.00
2023-03-04T00:29:12.926Z,28.90
2023-03-04T00:29:46.292Z,29.80
2023-03-04T00:30:20.291Z,30.80
2023-03-04T00:30:53.789Z,30.60
2023-03-04T00:31:27.157Z,32.10
2023-03-04T00:32:00.725Z,29.30
2023-03-04T00:32:34.299Z,29.90
2023-03-04T00:33:07.759Z,33.60
2023-03-04T00:33:41.086Z,32.70
2023-03-04T00:34:14.538Z,31.80
2023-03-04T00:34:47.964Z,29.10
2023-03-04T00:35:21.427Z,31.50
2023-03-04T00:35:55.015Z,29.10
2023-03-04T00:36:28.761Z,33.80
2023-03-04T00:37:03.975Z,29.80
2023-03-04T00:37:40.355Z,30.70
2023-03-04T00:38:13.794Z,31.40
2023-03-04T00:38:48.996Z,34.10
2023-03-04T00:39:22.541Z,35.50
2023-03-04T00:39:55.901Z,33.40
2023-03-04T00:40:29.294Z,33.30
2023-03-04T00:41:02.766Z,30.80
2023-03-04T00:41:36.316Z,33.80
2023-03-04T00:42:09.579Z,30.70
2023-03-04T00:42:45.195Z,33.10
2023-03-04T00:43:18.495Z,31.00
2023-03-04T00:43:52.004Z,33.70
2023-03-04T00:44:25.416Z,33.90
2023-03-04T00:44:59.168Z,38.40
2023-03-04T00:45:32.499Z,37.40
2023-03-04T00:46:05.822Z,34.60
2023-03-04T00:46:39.124Z,35.90
2023-03-04T00:47:12.584Z,37.50
2023-03-04T00:47:45.894Z,34.50
2023-03-04T00:48:19.224Z,33.20
2023-03-04T00:48:52.582Z,35.20
2023-03-04T00:49:26.131Z,34.20
2023-03-04T00:49:59.395Z,36.40
2023-03-04T00:50:32.794Z,35.00
2023-03-04T00:51:06.827Z,35.40
2023-03-04T00:51:40.076Z,35.80
2023-03-04T00:52:13.313Z,37.70
2023-03-04T00:52:46.656Z,40.90
2023-03-04T00:53:20.780Z,36.40
2023-03-04T00:53:54.068Z,40.10
2023-03-04T00:54:27.477Z,41.30
2023-03-04T00:55:00.759Z,42.90
2023-03-04T00:55:34.067Z,40.60
2023-03-04T00:56:07.867Z,38.70
2023-03-04T00:56:41.141Z,38.10
2023-03-04T00:57:14.559Z,39.90
2023-03-04T00:57:47.808Z,38.20
2023-03-04T00:58:21.776Z,43.60
2023-03-04T00:58:55.473Z,43.10
2023-03-04T00:59:28.760Z,45.00
2023-03-04T01:00:02.218Z,45.00
2023-03-04T01:00:35.750Z,44.00
2023-03-04T01:01:09.191Z,48.30
2023-03-04T01:01:42.629Z,46.90
2023-03-04T01:02:15.965Z,44.40
2023-03-04T01:02:49.449Z,45.30
2023-03-04T01:03:22.807Z,43.20
2023-03-04T01:03:56.280Z,52.50
2023-03-04T01:04:29.600Z,55.00
2023-03-04T01:05:02.892Z,52.80
2023-03-04T01:05:36.409Z,57.80
2023-03-04T01:06:09.730Z,62.90
2023-03-04T01:06:43.066Z,66.50
2023-03-04T01:07:16.429Z,67.20
2023-03-04T01:07:49.697Z,52.70
2023-03-04T01:08:22.894Z,62.80
2023-03-04T01:08:56.251Z,61.40
2023-03-04T01:09:29.478Z,63.00
2023-03-04T01:10:02.885Z,62.10
2023-03-04T01:10:36.446Z,62.40
2023-03-04T01:11:10.464Z,66.40
2023-03-04T01:11:43.772Z,58.80
2023-03-04T01:12:18.644Z,62.30
2023-03-04T01:12:54.864Z,59.90
2023-03-04T01:13:29.324Z,63.60
2023-03-04T01:14:02.622Z,67.30
2023-03-04T01:14:36.442Z,60.90
2023-03-04T01:15:12.548Z,63.00
2023-03-04T01:15:45.909Z,57.40
2023-03-04T01:16:19.434Z,62.60
2023-03-04T01:16:54.079Z,58.60
2023-03-04T01:17:28.590Z,57.60
2023-03-04T01:18:02.017Z,59.00
2023-03-04T01:18:35.736Z,58.20
2023-03-04T01:19:09.274Z,55.90
2023-03-04T01:19:42.952Z,59.10
2023-03-04T01:20:16.460Z,64.80
2023-03-04T01:20:49.881Z,59.40
2023-03-04T01:21:23.386Z,62.50
2023-03-04T01:21:56.634Z,58.50
2023-03-04T01:22:30.049Z,60.30
2023-03-04T01:23:03.307Z,62.80
2023-03-04T01:23:36.830Z,62.80
2023-03-04T01:24:10.075Z,59.60
2023-03-04T01:24:46.548Z,60.00
2023-03-04T01:25:20.143Z,61.00
2023-03-04T01:25:54.534Z,61.40
2023-03-04T01:26:27.822Z,65.00
2023-03-04T01:27:01.124Z,65.40
2023-03-04T01:27:34.829Z,64.50
2023-03-04T01:28:08.247Z,68.20
2023-03-04T01:28:41.616Z,62.50
2023-03-04T01:29:14.991Z,65.30
2023-03-04T01:29:48.320Z,67.00
2023-03-04T01:30:21.638Z,63.30
2023-03-04T01:30:55.359Z,67.20
2023-03-04T01:31:30.528Z,70.10
2023-03-04T01:32:04.552Z,66.50
2023-03-04T01:32:37.964Z,66.60
2023-03-04T01:33:11.335Z,69.40
2023-03-04T01:33:44.804Z,68.00
2023-03-04T01:34:18.320Z,71.50
2023-03-04T01:34:51.785Z,67.30
2023-03-04T01:35:25.218Z,66.20
2023-03-04T01:35:58.644Z,69.40
2023-03-04T01:36:32.219Z,68.50
2023-03-04T01:37:05.560Z,70.20
2023-03-04T01:37:38.995Z,66.90
2023-03-04T01:38:13.068Z,72.10
2023-03-04T01:38:46.526Z,66.60
2023-03-04T01:39:19.998Z,65.20
2023-03-04T01:39:53.442Z,65.80
2023-03-04T01:40:27.164Z,65.80
2023-03-04T01:41:02.212Z,66.30
2023-03-04T01:41:35.940Z,65.60
2023-03-04T01:42:32.070Z,66.40
2023-03-04T01:43:06.610Z,59.60
2023-03-04T01:43:40.668Z,62.80
2023-03-04T01:44:14.118Z,60.80
2023-03-04T01:44:48.820Z,61.20
2023-03-04T01:45:22.409Z,64.30
2023-03-04T01:45:57.373Z,63.00
2023-03-04T01:46:32.472Z,62.70
2023-03-04T01:47:05.941Z,61.60
2023-03-04T01:47:39.470Z,63.90
2023-03-04T01:48:17.293Z,63.90
2023-03-04T01:48:50.726Z,58.60
2023-03-04T01:49:24.101Z,68.40
2023-03-04T01:49:58.838Z,68.00
2023-03-04T01:50:35.206Z,62.40
2023-03-04T01:51:16.958Z,60.80
2023-03-04T01:51:53.266Z,64.90
2023-03-04T01:52:29.294Z,61.30
2023-03-04T01:53:03.941Z,65.10
2023-03-04T01:53:37.440Z,66.70
2023-03-04T01:54:10.852Z,65.20
2023-03-04T01:54:44.068Z,62.30
2023-03-04T01:55:22.902Z,67.40
2023-03-04T01:56:24.451Z,64.80
2023-03-04T01:57:00.489Z,58.70
2023-03-04T01:57:35.708Z,61.60
2023-03-04T01:58:12.133Z,62.00
2023-03-04T01:58:45.872Z,60.90
2023-03-04T01:59:24.790Z,65.40
2023-03-04T02:00:34.896Z,61.60
2023-03-04T02:01:11.858Z,59.00
2023-03-04T02:01:56.977Z,59.10
2023-03-04T02:02:30.417Z,63.20
2023-03-04T02:03:12.996Z,63.50
2023-03-04T02:03:46.273Z,65.60
2023-03-04T02:04:24.342Z,66.20
2023-03-04T02:04:57.803Z,66.40
2023-03-04T02:05:31.571Z,68.30
2023-03-04T02:06:05.088Z,66.00
2023-03-04T02:06:41.449Z,68.60
2023-03-04T02:07:14.825Z,63.40
2023-03-04T02:07:49.467Z,66.30
2023-03-04T02:08:24.782Z,67.20
2023-03-04T02:08:58.588Z,67.80
2023-03-04T02:09:33.336Z,65.10
2023-03-04T02:10:07.214Z,66.00
2023-03-04T02:10:43.034Z,70.00
2023-03-04T02:11:16.545Z,69.20
2023-03-04T02:11:51.468Z,68.60
2023-03-04T02:12:24.925Z,67.20
2023-03-04T02:12:59.674Z,67.60
2023-03-04T02:13:34.426Z,74.40
2023-03-04T02:14:08.540Z,68.20
2023-03-04T02:14:41.853Z,70.90
2023-03-04T02:15:16.007Z,68.30
2023-03-04T02:15:49.639Z,69.30
2023-03-04T02:16:23.135Z,68.40
2023-03-04T02:16:56.594Z,74.00
2023-03-04T02:17:29.808Z,77.50
2023-03-04T02:18:14.287Z,74.40
2023-03-04T02:18:48.884Z,71.00
2023-03-04T02:19:47.390Z,80.80
2023-03-04T02:20:27.861Z,68.90
2023-03-04T02:21:34.428Z,69.00
2023-03-04T02:22:07.950Z,64.00
2023-03-04T02:23:01.573Z,74.50
2023-03-04T02:23:55.957Z,70.10
2023-03-04T02:24:55.333Z,70.50
2023-03-04T02:26:04.316Z,61.10
2023-03-04T02:26:41.511Z,59.90
2023-03-04T02:27:15.060Z,69.00
2023-03-04T02:27:48.278Z,75.10
2023-03-04T02:28:22.132Z,75.30
2023-03-04T02:28:58.237Z,77.30
2023-03-04T02:29:31.692Z,77.80
2023-03-04T02:30:05.978Z,80.50
2023-03-04T02:30:39.511Z,77.70
2023-03-04T02:31:20.843Z,77.20
2023-03-04T02:31:55.255Z,71.70
2023-03-04T02:32:28.607Z,81.90
2023-03-04T02:33:02.007Z,79.90
2023-03-04T02:33:36.317Z,81.10
2023-03-04T02:34:19.442Z,81.70
2023-03-04T02:34:53.076Z,74.50
2023-03-04T02:35:27.324Z,79.50
2023-03-04T02:36:01.103Z,79.20
2023-03-04T02:36:36.651Z,86.30
2023-03-04T02:37:10.838Z,87.50
2023-03-04T02:37:44.512Z,77.60
2023-03-04T02:38:17.866Z,86.70
2023-03-04T02:38:53.813Z,81.60
2023-03-04T02:39:56.285Z,82.10
2023-03-04T02:40:34.528Z,78.20
2023-03-04T02:41:14.303Z,82.50
2023-03-04T02:41:49.089Z,76.50
2023-03-04T02:42:22.808Z,81.00
2023-03-04T02:42:58.335Z,81.10
2023-03-04T02:43:31.852Z,81.30
2023-03-04T02:44:17.171Z,78.40
2023-03-04T02:45:00.195Z,77.10
2023-03-04T02:45:33.363Z,77.80
2023-03-04T02:46:06.900Z,82.80
2023-03-04T02:46:40.371Z,82.20
2023-03-04T02:47:20.629Z,75.40
2023-03-04T02:47:54.629Z,80.30
2023-03-04T02:48:27.972Z,77.80
2023-03-04T02:49:01.251Z,78.70
2023-03-04T02:51:26.580Z,64.60
2023-03-04T02:52:07.290Z,78.20
2023-03-04T02:52:40.818Z,75.90
2023-03-04T02:53:15.560Z,84.80
2023-03-04T02:53:49.346Z,79.60
2023-03-04T02:54:24.588Z,84.40
2023-03-04T02:54:58.020Z,83.90
2023-03-04T02:55:32.532Z,80.70
2023-03-04T02:56:06.463Z,78.60
2023-03-04T02:56:49.233Z,80.40
2023-03-04T02:57:59.844Z,75.30
2023-03-04T02:58:33.490Z,75.70
2023-03-04T02:59:07.217Z,79.50
2023-03-04T02:59:41.569Z,74.80
2023-03-04T03:00:16.548Z,83.40
2023-03-04T03:00:50.216Z,80.40
2023-03-04T03:01:28.027Z,81.30
2023-03-04T03:02:01.645Z,76.60
2023-03-04T03:02:35.310Z,79.10
2023-03-04T03:03:10.788Z,82.10
2023-03-04T03:03:44.507Z,82.90
2023-03-04T03:04:19.096Z,78.30
2023-03-04T03:04:52.764Z,82.20
2023-03-04T03:05:30.301Z,79.80
2023-03-04T03:06:04.402Z,79.90
2023-03-04T03:06:38.032Z,77.00
2023-03-04T03:07:11.468Z,80.00
2023-03-04T03:07:45.214Z,82.90
2023-03-04T03:08:19.142Z,83.10
2023-03-04T03:08:52.716Z,83.00
2023-03-04T03:09:26.233Z,82.50
2023-03-04T03:09:59.601Z,84.20
2023-03-04T03:10:33.712Z,83.90
2023-03-04T03:11:08.986Z,81.50
2023-03-04T03:11:43.115Z,75.80
2023-03-04T03:12:16.757Z,80.40
2023-03-04T03:12:50.203Z,87.60
2023-03-04T03:13:23.872Z,80.40
2023-03-04T03:13:57.414Z,89.10
2023-03-04T03:14:31.123Z,81.20
2023-03-04T03:15:05.168Z,83.30
2023-03-04T03:15:42.579Z,80.40
2023-03-04T03:16:16.362Z,80.40
2023-03-04T03:16:52.964Z,76.10
2023-03-04T03:17:26.488Z,77.10
2023-03-04T03:18:00.148Z,79.10
2023-03-04T03:18:33.781Z,75.40
2023-03-04T03:19:07.490Z,79.70
2023-03-04T03:19:41.279Z,89.40
2023-03-04T03:20:15.741Z,80.50
2023-03-04T03:20:51.707Z,79.70
2023-03-04T03:21:25.229Z,79.00
2023-03-04T03:21:58.799Z,76.40
2023-03-04T03:22:33.028Z,77.90
2023-03-04T03:23:06.683Z,76.90
2023-03-04T03:23:40.666Z,77.30
2023-03-04T03:24:14.398Z,80.90
2023-03-04T03:24:47.914Z,79.10
2023-03-04T03:25:21.354Z,77.30
2023-03-04T03:25:54.871Z,81.50
2023-03-04T03:26:28.488Z,77.30
2023-03-04T03:27:02.132Z,83.70
2023-03-04T03:27:36.442Z,82.80
2023-03-04T03:28:09.974Z,80.40
2023-03-04T03:28:44.326Z,87.10
2023-03-04T03:29:17.892Z,84.90
2023-03-04T03:29:51.697Z,86.10
2023-03-04T03:30:25.480Z,86.10
2023-03-04T03:30:59.612Z,83.00
2023-03-04T03:31:33.526Z,80.90
2023-03-04T03:32:07.135Z,79.20
2023-03-04T03:32:40.721Z,78.30
2023-03-04T03:33:14.283Z,76.50
2023-03-04T03:33:48.982Z,83.70
2023-03-04T03:34:22.917Z,83.30
2023-03-04T03:34:56.634Z,89.50
2023-03-04T03:35:30.293Z,79.60
2023-03-04T03:36:04.972Z,89.30
2023-03-04T03:36:39.553Z,85.80
2023-03-04T03:37:13.263Z,85.50
2023-03-04T03:37:46.858Z,83.00
2023-03-04T03:38:20.858Z,88.50
2023-03-04T03:38:54.313Z,86.80
2023-03-04T03:39:27.931Z,86.10
2023-03-04T03:40:01.397Z,87.80
2023-03-04T03:40:35.056Z,87.60
2023-03-04T03:41:08.669Z,85.30
2023-03-04T03:41:42.530Z,91.40
2023-03-04T03:42:16.049Z,85.40
2023-03-04T03:42:49.572Z,84.80
2023-03-04T03:43:23.290Z,87.30
2023-03-04T03:43:57.197Z,88.00
2023-03-04T03:44:31.223Z,85.30
2023-03-04T03:45:05.140Z,81.50
2023-03-04T03:45:38.696Z,86.50
2023-03-04T03:46:12.366Z,91.10
2023-03-04T03:46:47.234Z,87.30
2023-03-04T03:47:20.941Z,87.60
2023-03-04T03:47:55.331Z,93.20
2023-03-04T03:48:28.967Z,87.00
2023-03-04T03:49:02.562Z,88.90
2023-03-04T03:49:36.332Z,80.10
2023-03-04T03:50:10.253Z,86.80
2023-03-04T03:50:43.941Z,80.90
2023-03-04T03:51:17.477Z,84.40
2023-03-04T03:51:51.201Z,90.80
2023-03-04T03:52:24.722Z,85.50
2023-03-04T03:52:58.137Z,84.70
2023-03-04T03:53:31.712Z,91.00
2023-03-04T03:54:05.287Z,83.20
2023-03-04T03:54:38.870Z,85.80
2023-03-04T03:55:15.129Z,86.60
2023-03-04T03:55:48.666Z,88.00
2023-03-04T03:56:24.909Z,83.80
2023-03-04T03:56:58.353Z,80.50
2023-03-04T03:57:31.809Z,85.10
2023-03-04T03:58:08.292Z,82.20
2023-03-04T03:58:41.886Z,82.30
2023-03-04T03:59:15.413Z,81.10
2023-03-04T03:59:48.976Z,80.40
2023-03-04T04:00:23.099Z,81.70
2023-03-04T04:00:58.401Z,79.20
2023-03-04T04:01:33.754Z,77.70
2023-03-04T04:02:07.315Z,78.30
2023-03-04T04:02:41.252Z,79.80
2023-03-04T04:03:16.159Z,79.50
2023-03-04T04:03:49.513Z,80.00
2023-03-04T04:04:23.233Z,83.00
2023-03-04T04:04:56.768Z,81.60
2023-03-04T04:05:30.194Z,86.20
2023-03-04T04:06:04.288Z,83.50
2023-03-04T04:06:37.727Z,79.00
2023-03-04T04:07:11.214Z,78.10
2023-03-04T04:07:44.776Z,82.40
2023-03-04T04:08:20.392Z,83.50
2023-03-04T04:08:53.867Z,81.10
2023-03-04T04:09:27.290Z,80.20
2023-03-04T04:10:00.756Z,82.10
2023-03-04T04:10:34.079Z,84.00
2023-03-04T04:11:10.453Z,84.90
2023-03-04T04:11:43.849Z,72.50
2023-03-04T04:12:18.572Z,78.40
2023-03-04T04:12:51.969Z,80.10
2023-03-04T04:13:25.465Z,86.60
2023-03-04T04:13:58.902Z,79.90
2023-03-04T04:14:32.709Z,80.40
2023-03-04T04:15:06.897Z,84.50
2023-03-04T04:15:40.313Z,81.10
2023-03-04T04:16:13.682Z,82.00
2023-03-04T04:16:47.181Z,86.30
2023-03-04T04:17:20.582Z,79.40
2023-03-04T04:17:54.274Z,79.50
2023-03-04T04:18:27.979Z,79.50
2023-03-04T04:19:01.396Z,84.70
2023-03-04T04:19:35.329Z,81.60
2023-03-04T04:20:09.647Z,81.70
2023-03-04T04:20:43.079Z,78.10
2023-03-04T04:21:16.562Z,85.90
2023-03-04T04:21:50.402Z,78.30
2023-03-04T04:22:23.980Z,78.60
2023-03-04T04:22:57.577Z,87.60
2023-03-04T04:23:31.660Z,82.20
2023-03-04T04:24:07.659Z,83.00
2023-03-04T04:24:41.148Z,84.70
2023-03-04T04:25:14.737Z,88.60
2023-03-04T04:25:48.236Z,84.20
2023-03-04T04:26:21.840Z,79.20
2023-03-04T04:26:55.571Z,89.80
2023-03-04T04:27:29.080Z,82.80
2023-03-04T04:28:02.713Z,81.40
2023-03-04T04:28:38.405Z,91.70
2023-03-04T04:29:14.943Z,90.70
2023-03-04T04:29:53.844Z,90.00
2023-03-04T04:30:27.449Z,86.40
2023-03-04T04:31:01.110Z,86.60
2023-03-04T04:31:34.963Z,87.60
2023-03-04T04:32:09.264Z,83.20
2023-03-04T04:32:42.791Z,84.80
2023-03-04T04:33:17.109Z,93.50
2023-03-04T04:33:50.592Z,93.40
2023-03-04T04:34:24.111Z,92.20
2023-03-04T04:34:57.715Z,93.80
2023-03-04T04:35:35.902Z,94.70
2023-03-04T04:36:14.925Z,101.80
2023-03-04T04:36:48.489Z,92.70
2023-03-04T04:37:21.996Z,91.50
2023-03-04T04:37:55.376Z,95.30
2023-03-04T04:38:28.832Z,86.70
2023-03-04T04:39:02.714Z,96.10
2023-03-04T04:39:36.619Z,95.50
2023-03-04T04:40:10.684Z,86.10
2023-03-04T04:40:44.080Z,87.70
2023-03-04T04:41:24.721Z,92.10
2023-03-04T04:41:58.264Z,84.80
2023-03-04T04:42:31.815Z,88.10
2023-03-04T04:43:05.323Z,93.40
2023-03-04T04:43:38.779Z,86.80
2023-03-04T04:44:13.413Z,91.40
2023-03-04T04:44:46.858Z,98.50
2023-03-04T04:45:20.229Z,91.70
2023-03-04T04:45:53.836Z,97.20
2023-03-04T04:46:27.407Z,101.00
2023-03-04T04:47:00.973Z,99.40
2023-03-04T04:47:34.846Z,96.30
2023-03-04T04:48:09.236Z,99.60
2023-03-04T04:48:42.895Z,98.80
2023-03-04T04:49:16.402Z,86.60
2023-03-04T04:49:50.003Z,94.50
2023-03-04T04:50:24.908Z,85.60
2023-03-04T04:50:59.835Z,89.30
2023-03-04T04:51:35.922Z,86.80
2023-03-04T04:52:09.460Z,92.20
2023-03-04T04:52:43.085Z,91.80
2023-03-04T04:53:16.531Z,91.40
2023-03-04T04:53:50.003Z,90.80
2023-03-04T04:54:26.403Z,96.90
2023-03-04T04:55:00.015Z,82.10
2023-03-04T04:55:34.897Z,90.10
2023-03-04T04:56:16.494Z,87.20
2023-03-04T04:56:49.903Z,85.50
2023-03-04T04:57:26.202Z,86.80
2023-03-04T04:57:59.613Z,86.10
2023-03-04T04:58:33.252Z,84.30
2023-03-04T04:59:10.656Z,82.30
2023-03-04T04:59:44.224Z,84.60
2023-03-04T05:00:19.359Z,82.10
2023-03-04T05:00:52.850Z,82.00
2023-03-04T05:01:26.680Z,86.40
2023-03-04T05:02:00.181Z,89.50
2023-03-04T05:02:37.477Z,86.50
2023-03-04T05:03:11.031Z,78.70
2023-03-04T05:03:44.637Z,77.50
2023-03-04T05:04:18.309Z,76.70
2023-03-04T05:04:51.889Z,82.00
2023-03-04T05:05:25.582Z,74.60
2023-03-04T05:05:59.026Z,82.80
2023-03-04T05:06:32.744Z,86.90
2023-03-04T05:07:06.691Z,90.20
2023-03-04T05:07:40.339Z,85.00
2023-03-04T05:08:14.112Z,80.40
2023-03-04T05:08:48.503Z,83.90
2023-03-04T05:09:23.257Z,83.50
2023-03-04T05:09:56.848Z,80.40
2023-03-04T05:10:30.664Z,80.40
2023-03-04T05:11:05.334Z,80.90
2023-03-04T05:11:38.853Z,87.20
2023-03-04T05:12:12.412Z,82.50
2023-03-04T05:12:46.160Z,88.20
2023-03-04T05:13:20.211Z,87.20
2023-03-04T05:13:53.822Z,85.80
2023-03-04T05:14:27.291Z,82.40
2023-03-04T05:15:01.396Z,76.80
2023-03-04T05:15:35.004Z,75.00
2023-03-04T05:16:09.257Z,83.20
2023-03-04T05:16:42.677Z,80.70
2023-03-04T05:17:16.139Z,78.70
2023-03-04T05:17:49.529Z,81.90
2023-03-04T05:18:25.021Z,78.70
2023-03-04T05:18:58.489Z,85.00
2023-03-04T05:19:31.933Z,79.20
2023-03-04T05:20:07.384Z,81.60
2023-03-04T05:20:40.828Z,76.20
2023-03-04T05:21:14.756Z,84.70
2023-03-04T05:21:48.943Z,78.30
2023-03-04T05:22:22.431Z,79.20
2023-03-04T05:22:56.268Z,77.00
2023-03-04T05:23:32.213Z,75.60
2023-03-04T05:24:05.989Z,74.80
2023-03-04T05:24:39.550Z,80.70
2023-03-04T05:25:13.047Z,79.10
2023-03-04T05:25:46.972Z,73.90
2023-03-04T05:26:20.483Z,76.80
2023-03-04T05:26:53.875Z,72.60
2023-03-04T05:27:27.337Z,74.80
2023-03-04T05:28:02.299Z,73.80
2023-03-04T05:28:36.121Z,71.90
2023-03-04T05:29:09.599Z,71.20
2023-03-04T05:29:44.928Z,75.10
2023-03-04T05:30:18.734Z,70.50
2023-03-04T05:30:52.289Z,73.70
2023-03-04T05:31:26.019Z,75.10
2023-03-04T05:31:59.490Z,74.70
2023-03-04T05:32:32.952Z,72.40
2023-03-04T05:33:09.034Z,69.80
2023-03-04T05:33:42.564Z,70.40
2023-03-04T05:34:16.155Z,76.40
2023-03-04T05:34:49.649Z,74.80
2023-03-04T05:35:23.267Z,70.90
2023-03-04T05:35:56.948Z,75.80
2023-03-04T05:36:30.537Z,71.60
2023-03-04T05:37:03.954Z,73.50
2023-03-04T05:37:37.521Z,73.20
2023-03-04T05:38:13.836Z,70.90
2023-03-04T05:38:47.519Z,67.50
2023-03-04T05:39:22.565Z,70.10
2023-03-04T05:40:29.654Z,61.10
2023-03-04T05:41:06.504Z,66.30
2023-03-04T05:41:40.164Z,65.10
2023-03-04T05:42:15.958Z,64.30
2023-03-04T05:42:49.492Z,64.70
2023-03-04T05:43:23.665Z,68.10
2023-03-04T05:43:57.449Z,65.30
2023-03-04T05:44:31.650Z,65.70
2023-03-04T05:45:05.755Z,63.70
2023-03-04T05:45:40.204Z,67.70
2023-03-04T05:46:15.604Z,63.90
2023-03-04T05:46:49.354Z,72.00
2023-03-04T05:47:23.001Z,70.80
2023-03-04T05:47:56.646Z,68.20
2023-03-04T05:48:30.307Z,69.10
2023-03-04T05:49:04.061Z,71.20
2023-03-04T05:49:37.709Z,64.50
2023-03-04T05:50:12.163Z,66.90
2023-03-04T05:50:45.943Z,65.50
2023-03-04T05:51:21.103Z,67.60
2023-03-04T05:51:54.741Z,69.80
2023-03-04T05:52:28.333Z,65.40
2023-03-04T05:53:02.004Z,63.30
2023-03-04T05:53:39.611Z,65.90
2023-03-04T05:54:13.448Z,65.20
2023-03-04T05:54:47.015Z,67.10
2023-03-04T05:55:20.737Z,64.70
2023-03-04T05:55:54.350Z,64.90
2023-03-04T05:56:30.169Z,63.70
2023-03-04T05:57:03.895Z,63.70
2023-03-04T05:57:37.410Z,63.10
2023-03-04T05:58:11.018Z,62.10
2023-03-04T05:58:45.231Z,64.50
2023-03-04T05:59:20.954Z,61.50
2023-03-04T05:59:54.568Z,61.60
2023-03-04T06:00:28.495Z,61.40
2023-03-04T06:01:02.155Z,63.60
2023-03-04T06:01:35.864Z,66.00
2023-03-04T06:02:09.489Z,59.90
2023-03-04T06:02:44.837Z,59.90
2023-03-04T06:03:21.308Z,61.30
2023-03-04T06:03:54.915Z,63.30
2023-03-04T06:04:28.441Z,65.60
2023-03-04T06:05:02.268Z,61.30
2023-03-04T06:05:36.013Z,59.80
2023-03-04T06:06:10.260Z,60.80
2023-03-04T06:06:44.416Z,57.80
2023-03-04T06:07:17.974Z,60.80
2023-03-04T06:07:51.389Z,63.10
2023-03-04T06:08:25.113Z,61.50
2023-03-04T06:08:59.331Z,64.40
2023-03-04T06:09:33.900Z,61.80
2023-03-04T06:10:08.168Z,63.20
2023-03-04T06:10:42.301Z,63.20
2023-03-04T06:11:15.881Z,68.00
2023-03-04T06:11:49.477Z,64.10
2023-03-04T06:12:23.032Z,65.80
2023-03-04T06:12:56.598Z,61.20
2023-03-04T06:13:30.290Z,63.60
2023-03-04T06:14:04.267Z,61.30
2023-03-04T06:14:37.731Z,61.10
2023-03-04T06:15:12.442Z,64.60
2023-03-04T06:15:46.323Z,61.80
2023-03-04T06:16:22.450Z,61.90
2023-03-04T06:16:56.082Z,60.50
2023-03-04T06:17:30.659Z,65.00
2023-03-04T06:18:04.439Z,64.50
2023-03-04T06:18:38.638Z,64.40
2023-03-04T06:19:12.170Z,64.70
2023-03-04T06:19:45.806Z,64.70
2023-03-04T06:20:19.403Z,62.10
2023-03-04T06:21:00.085Z,64.80
2023-03-04T06:21:33.690Z,61.10
2023-03-04T06:22:07.712Z,62.40
2023-03-04T06:22:41.491Z,64.60
2023-03-04T06:23:15.676Z,65.60
2023-03-04T06:23:49.367Z,66.40
2023-03-04T06:24:22.932Z,60.10
2023-03-04T06:24:56.444Z,61.80
2023-03-04T06:25:30.550Z,64.70
2023-03-04T06:26:05.560Z,57.90
2023-03-04T06:26:39.180Z,61.40
2023-03-04T06:27:13.724Z,59.30
2023-03-04T06:27:48.681Z,61.40
2023-03-04T06:28:25.148Z,61.40
2023-03-04T06:28:58.705Z,60.80
2023-03-04T06:29:32.529Z,59.40
2023-03-04T06:30:06.941Z,60.00
2023-03-04T06:30:40.452Z,60.40
2023-03-04T06:31:14.569Z,57.90
2023-03-04T06:31:48.507Z,61.70
2023-03-04T06:32:22.113Z,60.80
2023-03-04T06:32:55.656Z,59.20
2023-03-04T06:33:29.355Z,59.70
2023-03-04T06:34:02.870Z,62.60
2023-03-04T06:34:36.568Z,59.80
2023-03-04T06:35:11.824Z,61.30
2023-03-04T06:35:45.392Z,57.90
2023-03-04T06:36:18.999Z,58.50
2023-03-04T06:36:54.276Z,57.30
2023-03-04T06:37:27.898Z,60.60
2023-03-04T06:38:01.505Z,62.10
2023-03-04T06:38:35.729Z,59.00
2023-03-04T06:39:09.946Z,60.80
2023-03-04T06:39:43.544Z,57.90
2023-03-04T06:40:17.499Z,63.60
2023-03-04T06:40:51.157Z,57.20
2023-03-04T06:41:24.698Z,55.90
2023-03-04T06:41:58.340Z,59.80
2023-03-04T06:42:31.932Z,57.90
2023-03-04T06:43:05.493Z,59.10
2023-03-04T06:43:40.586Z,58.30
2023-03-04T06:44:14.071Z,59.50
2023-03-04T06:44:50.150Z,59.30
2023-03-04T06:45:23.842Z,58.30
2023-03-04T06:45:57.389Z,60.00
2023-03-04T06:46:33.309Z,53.10
2023-03-04T06:47:07.616Z,53.30
2023-03-04T06:47:41.047Z,55.90
2023-03-04T06:48:14.488Z,59.00
2023-03-04T06:48:47.999Z,59.00
2023-03-04T06:49:21.916Z,59.40
2023-03-04T06:49:55.645Z,58.50
2023-03-04T06:50:29.358Z,54.90
2023-03-04T06:51:10.509Z,54.80
2023-03-04T06:52:17.666Z,51.80
2023-03-04T06:52:51.577Z,53.00
2023-03-04T06:53:25.081Z,52.90
2023-03-04T06:54:01.145Z,53.60
2023-03-04T06:54:34.575Z,52.70
2023-03-04T06:55:09.317Z,57.50
2023-03-04T06:55:42.965Z,49.70
2023-03-04T06:56:16.712Z,47.30
2023-03-04T06:56:51.373Z,53.50
2023-03-04T06:57:24.956Z,51.50
2023-03-04T06:57:58.391Z,50.10
2023-03-04T06:58:34.137Z,50.20
2023-03-04T06:59:07.650Z,51.60
2023-03-04T06:59:41.396Z,52.10
2023-03-04T07:00:20.572Z,50.40
2023-03-04T07:00:54.270Z,46.40
2023-03-04T07:01:29.342Z,51.20
2023-03-04T07:02:03.087Z,43.60
2023-03-04T07:02:36.772Z,49.70
2023-03-04T07:03:12.896Z,48.20
2023-03-04T07:03:47.958Z,50.10
2023-03-04T07:04:23.099Z,49.10
2023-03-04T07:04:57.707Z,47.00
2023-03-04T07:05:31.688Z,47.20
2023-03-04T07:06:05.326Z,50.60
2023-03-04T07:06:38.836Z,49.20
2023-03-04T07:07:12.591Z,47.50
2023-03-04T07:07:46.073Z,50.90
2023-03-04T07:08:21.714Z,45.00
2023-03-04T07:09:01.648Z,48.20
2023-03-04T07:09:35.561Z,48.00
2023-03-04T07:10:10.934Z,46.50
2023-03-04T07:10:46.512Z,48.50
2023-03-04T07:11:23.581Z,46.20
2023-03-04T07:11:59.969Z,45.20
2023-03-04T07:12:37.803Z,45.50
2023-03-04T07:13:11.471Z,44.90
2023-03-04T07:13:45.395Z,46.90
2023-03-04T07:14:18.873Z,47.00
2023-03-04T07:14:52.391Z,45.90
2023-03-04T07:15:25.838Z,44.70
2023-03-04T07:16:00.836Z,46.50
2023-03-04T07:16:38.206Z,43.90
2023-03-04T07:17:16.049Z,44.00
2023-03-04T07:17:49.532Z,43.90
2023-03-04T07:18:23.178Z,47.20
2023-03-04T07:18:58.441Z,45.10
2023-03-04T07:19:34.843Z,42.40
2023-03-04T07:20:08.898Z,42.80
2023-03-04T07:20:42.490Z,40.60
2023-03-04T07:21:18.055Z,41.00
2023-03-04T07:21:54.152Z,42.60
2023-03-04T07:22:27.622Z,39.80
2023-03-04T07:23:01.194Z,39.30
2023-03-04T07:23:38.944Z,44.10
2023-03-04T07:24:14.918Z,39.80
2023-03-04T07:24:54.533Z,40.30
2023-03-04T07:25:28.198Z,41.90
2023-03-04T07:26:01.702Z,42.80
2023-03-04T07:26:35.358Z,40.20
2023-03-04T07:27:08.769Z,38.90
2023-03-04T07:27:42.293Z,40.40
2023-03-04T07:28:18.218Z,39.30
2023-03-04T07:28:53.080Z,37.20
2023-03-04T07:29:28.536Z,33.30